createdAt,value
2018-03-06T00:00:45.882Z,90.40
2018-03-06T00:03:12.267Z,90.10
2018-03-06T00:05:38.662Z,90.50
2018-03-06T00:08:05.789Z,91.30
2018-03-06T00:10:32.262Z,91.30
2018-03-06T00:12:58.709Z,91.30
2018-03-06T00:15:25.130Z,90.60
2018-03-06T00:17:51.495Z,90.90
2018-03-06T00:20:17.864Z,91.30
2018-03-06T00:22:44.998Z,90.90
2018-03-06T00:25:13.068Z,90.60
2018-03-06T00:27:40.238Z,90.90
2018-03-06T00:30:07.359Z,91.80
2018-03-06T00:32:33.751Z,91.50
2018-03-06T00:35:00.129Z,91.70
2018-03-06T00:37:26.554Z,91.60
2018-03-06T00:39:52.936Z,92.30
2018-03-06T00:42:19.321Z,92.10
2018-03-06T00:44:45.698Z,92.30
2018-03-06T00:47:12.112Z,91.90
2018-03-06T00:49:39.214Z,91.70
2018-03-06T00:52:06.343Z,91.50
2018-03-06T00:54:33.467Z,91.20
2018-03-06T00:57:00.590Z,91.50
2018-03-06T00:59:26.966Z,91.50
2018-03-06T01:01:53.346Z,91.80
2018-03-06T01:04:19.751Z,92.30
2018-03-06T01:06:46.137Z,93.10
2018-03-06T01:09:13.271Z,92.90
2018-03-06T01:11:39.639Z,92.90
2018-03-06T01:14:06.029Z,93.30
2018-03-06T01:16:32.418Z,94.20
2018-03-06T01:18:58.807Z,93.70
2018-03-06T01:21:25.997Z,93.50
2018-03-06T01:23:52.374Z,93.50
2018-03-06T01:26:18.824Z,93.40
2018-03-06T01:28:45.397Z,92.70
2018-03-06T01:31:11.774Z,92.50
2018-03-06T01:33:38.158Z,92.10
2018-03-06T01:36:04.556Z,92.30
2018-03-06T01:38:31.663Z,92.40
2018-03-06T01:40:58.034Z,92.40
2018-03-06T01:43:24.400Z,93.10
2018-03-06T01:45:50.798Z,93.00
2018-03-06T01:48:17.931Z,94.20
2018-03-06T01:50:44.344Z,94.20
2018-03-06T01:53:10.710Z,94.10
2018-03-06T01:55:37.822Z,93.80
2018-03-06T01:58:04.196Z,93.80
2018-03-06T02:00:31.316Z,93.40
2018-03-06T02:02:57.698Z,93.40
2018-03-06T02:05:24.071Z,93.10
2018-03-06T02:07:50.444Z,93.00
2018-03-06T02:10:17.585Z,93.10
2018-03-06T02:12:44.712Z,93.60
2018-03-06T02:15:11.101Z,93.60
2018-03-06T02:17:37.471Z,94.00
2018-03-06T02:20:04.682Z,94.90
2018-03-06T02:22:31.065Z,94.80
2018-03-06T02:24:57.454Z,94.30
2018-03-06T02:27:23.880Z,94.00
2018-03-06T02:30:03.125Z,93.80
2018-03-06T02:32:29.636Z,93.20
2018-03-06T02:34:56.045Z,94.10
2018-03-06T02:37:23.187Z,94.40
2018-03-06T02:39:50.316Z,94.40
2018-03-06T02:42:16.694Z,94.50
2018-03-06T02:44:43.083Z,94.40
2018-03-06T02:47:09.507Z,94.70
2018-03-06T02:49:35.836Z,94.20
2018-03-06T02:52:02.274Z,94.70
2018-03-06T02:54:28.656Z,94.80
2018-03-06T02:56:55.026Z,95.40
2018-03-06T02:59:21.394Z,94.90
2018-03-06T03:01:48.566Z,95.00
2018-03-06T03:04:15.686Z,94.90
2018-03-06T03:06:42.067Z,94.90
2018-03-06T03:09:08.462Z,93.70
2018-03-06T03:11:35.599Z,95.00
2018-03-06T03:14:01.995Z,95.00
2018-03-06T03:16:28.376Z,95.20
2018-03-06T03:18:55.489Z,94.50
2018-03-06T03:21:21.880Z,94.50
2018-03-06T03:23:48.289Z,94.00
2018-03-06T03:26:15.410Z,93.40
2018-03-06T03:28:41.777Z,93.40
2018-03-06T03:31:08.899Z,93.10
2018-03-06T03:33:35.297Z,93.10
2018-03-06T03:36:01.677Z,93.10
2018-03-06T03:38:28.807Z,93.80
2018-03-06T03:40:55.184Z,93.80
2018-03-06T03:43:21.547Z,93.80
2018-03-06T03:45:48.022Z,93.50
2018-03-06T03:48:15.043Z,94.40
2018-03-06T03:50:42.910Z,92.90
2018-03-06T03:53:09.357Z,92.90
2018-03-06T03:55:35.811Z,93.30
2018-03-06T03:58:02.955Z,92.30
2018-03-06T04:00:30.072Z,93.30
2018-03-06T04:02:56.806Z,93.30
2018-03-06T04:05:23.186Z,92.80
2018-03-06T04:07:49.563Z,93.00
2018-03-06T04:10:15.976Z,93.00
2018-03-06T04:12:42.354Z,93.50
2018-03-06T04:15:08.762Z,93.30
2018-03-06T04:17:35.150Z,93.20
2018-03-06T04:20:01.542Z,93.30
2018-03-06T04:22:27.951Z,92.70
2018-03-06T04:24:54.334Z,92.80
2018-03-06T04:27:21.460Z,93.80
2018-03-06T04:29:47.827Z,93.80
2018-03-06T04:32:14.194Z,93.40
2018-03-06T04:34:40.574Z,93.50
2018-03-06T04:37:07.691Z,93.70
2018-03-06T04:39:34.094Z,93.60
2018-03-06T04:42:00.486Z,92.70
2018-03-06T04:44:26.889Z,93.90
2018-03-06T04:46:53.267Z,92.90
2018-03-06T04:49:19.653Z,93.00
2018-03-06T04:51:46.029Z,93.10
2018-03-06T04:54:12.579Z,93.10
2018-03-06T04:56:39.055Z,92.50
2018-03-06T04:59:05.426Z,92.40
2018-03-06T05:01:31.813Z,92.20
2018-03-06T05:03:58.213Z,92.10
2018-03-06T05:06:24.656Z,92.30
2018-03-06T05:08:51.042Z,92.20
2018-03-06T05:11:18.189Z,91.90
2018-03-06T05:13:45.303Z,92.20
2018-03-06T05:16:11.675Z,92.20
2018-03-06T05:18:38.805Z,91.70
2018-03-06T05:21:05.209Z,91.70
2018-03-06T05:23:31.579Z,92.10
2018-03-06T05:25:58.695Z,92.10
2018-03-06T05:28:25.094Z,92.10
2018-03-06T05:30:51.479Z,92.00
2018-03-06T05:33:17.859Z,92.40
2018-03-06T05:35:44.261Z,91.90
2018-03-06T05:38:11.392Z,91.30
2018-03-06T05:40:38.574Z,91.60
2018-03-06T05:43:04.970Z,91.50
2018-03-06T05:45:31.348Z,91.40
2018-03-06T05:47:57.722Z,91.10
2018-03-06T05:50:24.109Z,91.40
2018-03-06T05:52:50.474Z,91.20
2018-03-06T05:55:16.848Z,90.90
2018-03-06T05:57:44.010Z,92.30
2018-03-06T06:00:10.446Z,92.30
2018-03-06T06:02:37.549Z,91.70
2018-03-06T06:05:03.942Z,91.60
2018-03-06T06:07:30.511Z,92.00
2018-03-06T06:09:56.914Z,92.40
2018-03-06T06:12:23.295Z,92.70
2018-03-06T06:14:49.732Z,92.20
2018-03-06T06:17:16.134Z,92.00
2018-03-06T06:19:42.523Z,92.00
2018-03-06T06:22:08.869Z,91.70
2018-03-06T06:24:35.349Z,91.50
2018-03-06T06:27:03.097Z,91.80
2018-03-06T06:29:29.433Z,92.00
2018-03-06T06:31:55.775Z,91.60
2018-03-06T06:34:22.135Z,91.40
2018-03-06T06:36:48.540Z,92.00
2018-03-06T06:39:15.453Z,91.80
2018-03-06T06:41:41.834Z,91.90
2018-03-06T06:44:08.930Z,92.70
2018-03-06T06:46:35.280Z,92.50
2018-03-06T06:49:01.612Z,93.10
2018-03-06T06:51:27.976Z,92.80
2018-03-06T06:53:54.344Z,93.10
2018-03-06T06:56:20.693Z,92.70
2018-03-06T06:58:47.025Z,92.10
2018-03-06T07:01:13.387Z,91.50
2018-03-06T07:03:40.033Z,92.00
2018-03-06T07:06:06.388Z,91.70
2018-03-06T07:08:33.493Z,91.60
2018-03-06T07:10:59.891Z,91.50
2018-03-06T07:13:26.249Z,91.10
2018-03-06T07:15:52.582Z,91.80
2018-03-06T07:18:18.907Z,91.60
2018-03-06T07:20:45.212Z,91.30
2018-03-06T07:23:11.549Z,91.70
2018-03-06T07:25:37.891Z,92.30
2018-03-06T07:28:04.209Z,92.60
2018-03-06T07:30:30.542Z,92.90
2018-03-06T07:32:56.872Z,93.10
2018-03-06T07:35:23.213Z,92.80
2018-03-06T07:37:49.529Z,92.50
2018-03-06T07:40:15.865Z,92.10
2018-03-06T07:42:42.211Z,92.00
2018-03-06T07:45:08.548Z,91.60
2018-03-06T07:47:34.882Z,91.60
2018-03-06T07:50:01.214Z,92.00
2018-03-06T07:52:27.541Z,91.60
2018-03-06T07:54:53.868Z,91.60
2018-03-06T07:57:20.190Z,92.20
2018-03-06T07:59:46.529Z,92.50
2018-03-06T08:02:12.885Z,92.50
2018-03-06T08:04:39.279Z,93.50
2018-03-06T08:07:05.614Z,93.30
2018-03-06T08:09:32.004Z,92.70
2018-03-06T08:11:58.361Z,92.20
2018-03-06T08:14:24.730Z,92.30
2018-03-06T08:16:51.121Z,92.40
2018-03-06T08:19:17.458Z,92.00
2018-03-06T08:21:43.793Z,92.10
2018-03-06T08:24:10.172Z,91.50
2018-03-06T08:26:36.547Z,91.30
2018-03-06T08:29:02.930Z,91.50
2018-03-06T08:31:29.307Z,91.60
2018-03-06T08:33:55.671Z,91.80
2018-03-06T08:36:21.989Z,91.80
2018-03-06T08:38:48.363Z,91.90
2018-03-06T08:41:15.467Z,91.60
2018-03-06T08:43:41.819Z,91.60
2018-03-06T08:46:08.198Z,91.00
2018-03-06T08:48:34.544Z,91.40
2018-03-06T08:51:00.874Z,92.00
2018-03-06T08:53:27.210Z,91.90
2018-03-06T08:55:53.619Z,92.00
2018-03-06T08:58:20.918Z,92.20
2018-03-06T09:00:47.259Z,92.20
2018-03-06T09:03:13.568Z,92.10
2018-03-06T09:05:39.958Z,91.40
2018-03-06T09:08:07.055Z,90.60
2018-03-06T09:10:33.388Z,90.60
2018-03-06T09:12:59.705Z,91.40
2018-03-06T09:15:26.030Z,91.10
2018-03-06T09:17:52.354Z,91.60
2018-03-06T09:20:18.683Z,91.60
2018-03-06T09:22:45.747Z,91.10
2018-03-06T09:25:12.077Z,91.10
2018-03-06T09:27:39.136Z,91.10
2018-03-06T09:30:06.238Z,91.70
2018-03-06T09:32:33.298Z,91.70
2018-03-06T09:35:00.609Z,91.40
2018-03-06T09:37:26.954Z,91.40
2018-03-06T09:42:19.638Z,91.40
2018-03-06T09:44:45.966Z,91.60
2018-03-06T09:47:13.210Z,91.30
2018-03-06T09:49:39.610Z,91.30
2018-03-06T09:52:05.984Z,91.30
2018-03-06T09:54:32.362Z,91.70
2018-03-06T09:56:58.748Z,91.50
2018-03-06T09:59:25.091Z,91.10
2018-03-06T10:01:51.685Z,90.90
2018-03-06T10:04:18.050Z,91.70
2018-03-06T10:06:44.410Z,91.50
2018-03-06T10:09:10.770Z,91.50
2018-03-06T10:11:38.112Z,91.40
2018-03-06T10:14:04.476Z,91.40
2018-03-06T10:16:31.648Z,90.60
2018-03-06T10:18:58.021Z,90.50
2018-03-06T10:21:24.397Z,91.00
2018-03-06T10:23:51.516Z,91.90
2018-03-06T10:26:18.616Z,91.60
2018-03-06T10:28:44.993Z,91.60
2018-03-06T10:31:11.395Z,91.80
2018-03-06T10:33:37.724Z,91.80
2018-03-06T10:36:04.148Z,91.80
2018-03-06T10:38:30.490Z,91.70
2018-03-06T10:40:56.813Z,92.20
2018-03-06T10:43:23.141Z,92.40
2018-03-06T10:45:49.548Z,92.60
2018-03-06T10:48:16.696Z,93.30
2018-03-06T10:50:43.264Z,93.30
2018-03-06T10:53:09.591Z,93.40
2018-03-06T10:55:35.937Z,92.80
2018-03-06T10:58:02.930Z,92.80
2018-03-06T11:00:36.228Z,93.20
2018-03-06T11:03:03.336Z,92.80
2018-03-06T11:05:29.729Z,92.80
2018-03-06T11:07:56.065Z,92.80
2018-03-06T11:10:22.400Z,93.00
2018-03-06T11:12:48.711Z,93.30
2018-03-06T11:15:15.783Z,93.40
2018-03-06T11:17:42.118Z,93.40
2018-03-06T11:20:08.440Z,93.40
2018-03-06T11:22:34.770Z,93.60
2018-03-06T11:25:01.117Z,93.20
2018-03-06T11:27:27.476Z,92.20
2018-03-06T11:29:53.832Z,92.40
2018-03-06T11:32:20.919Z,92.70
2018-03-06T11:34:47.263Z,92.60
2018-03-06T11:37:13.646Z,92.60
2018-03-06T11:39:40.737Z,92.60
2018-03-06T11:42:07.072Z,92.60
2018-03-06T11:44:33.465Z,92.60
2018-03-06T11:46:59.821Z,92.80
2018-03-06T11:49:26.198Z,93.10
2018-03-06T11:51:52.583Z,92.80
2018-03-06T11:54:18.952Z,92.70
2018-03-06T11:56:45.327Z,92.30
2018-03-06T11:59:11.690Z,92.80
2018-03-06T12:01:38.058Z,92.30
2018-03-06T12:04:05.147Z,91.70
2018-03-06T12:06:31.497Z,91.70
2018-03-06T12:08:57.874Z,91.80
2018-03-06T12:11:24.228Z,91.60
2018-03-06T12:13:50.558Z,91.60
2018-03-06T12:16:17.710Z,91.90
2018-03-06T12:18:44.070Z,92.00
2018-03-06T12:21:10.442Z,92.50
2018-03-06T12:23:37.542Z,92.70
2018-03-06T12:26:03.915Z,92.50
2018-03-06T12:28:30.249Z,92.80
2018-03-06T12:30:56.610Z,93.00
2018-03-06T12:33:22.951Z,93.60
2018-03-06T12:35:49.290Z,92.90
2018-03-06T12:38:15.699Z,93.10
2018-03-06T12:40:42.821Z,92.00
2018-03-06T12:43:09.199Z,92.00
2018-03-06T12:45:35.592Z,91.90
2018-03-06T12:48:02.736Z,92.20
2018-03-06T12:50:29.871Z,92.30
2018-03-06T12:52:56.991Z,92.40
2018-03-06T12:55:23.388Z,92.40
2018-03-06T12:57:50.534Z,93.20
2018-03-06T13:00:17.906Z,93.20
2018-03-06T13:02:44.298Z,93.10
2018-03-06T13:05:10.696Z,92.50
2018-03-06T13:07:37.068Z,92.90
2018-03-06T13:10:03.480Z,93.10
2018-03-06T13:12:29.861Z,93.70
2018-03-06T13:14:56.236Z,92.60
2018-03-06T13:17:22.607Z,93.00
2018-03-06T13:19:49.780Z,92.10
2018-03-06T13:22:16.226Z,92.10
2018-03-06T13:24:42.606Z,92.00
2018-03-06T13:27:10.486Z,92.80
2018-03-06T13:29:36.915Z,92.70
2018-03-06T13:32:04.172Z,92.90
2018-03-06T13:34:30.588Z,92.80
2018-03-06T13:36:57.716Z,93.10
2018-03-06T13:39:24.177Z,93.10
2018-03-06T13:41:51.330Z,93.30
2018-03-06T13:44:18.456Z,93.50
2018-03-06T13:46:44.869Z,93.50
2018-03-06T13:49:11.277Z,92.80
2018-03-06T13:51:37.662Z,91.70
2018-03-06T13:54:04.028Z,91.60
2018-03-06T13:56:31.154Z,91.50
2018-03-06T13:58:58.287Z,91.40
2018-03-06T14:01:24.680Z,91.70
2018-03-06T14:03:51.066Z,91.40
2018-03-06T14:06:18.183Z,91.40
2018-03-06T14:08:44.723Z,91.40
2018-03-06T14:11:11.134Z,92.30
2018-03-06T14:13:37.503Z,92.80
2018-03-06T14:16:03.947Z,93.00
2018-03-06T14:18:31.086Z,92.80
2018-03-06T14:20:57.481Z,92.80
2018-03-06T14:23:23.876Z,92.50
2018-03-06T14:25:50.273Z,91.90
2018-03-06T14:28:16.681Z,92.00
2018-03-06T14:30:43.102Z,92.10
2018-03-06T14:33:09.504Z,92.10
2018-03-06T14:35:36.619Z,92.00
2018-03-06T14:38:03.002Z,92.00
2018-03-06T14:40:29.402Z,91.80
2018-03-06T14:42:56.663Z,91.70
2018-03-06T14:45:23.872Z,91.90
2018-03-06T14:47:50.246Z,91.70
2018-03-06T14:50:17.519Z,91.10
2018-03-06T14:52:43.912Z,91.10
2018-03-06T14:55:10.284Z,91.30
2018-03-06T14:57:37.419Z,91.30
2018-03-06T15:00:03.899Z,91.30
2018-03-06T15:02:30.295Z,90.90
2018-03-06T15:04:56.761Z,90.60
2018-03-06T15:07:23.164Z,91.30
2018-03-06T15:09:49.547Z,91.70
2018-03-06T15:12:15.932Z,91.60
2018-03-06T15:14:42.327Z,92.00
2018-03-06T15:17:09.455Z,92.80
2018-03-06T15:19:35.822Z,92.50
2018-03-06T15:22:02.998Z,92.30
2018-03-06T15:24:29.379Z,92.30
2018-03-06T15:26:55.756Z,92.80
2018-03-06T15:29:22.159Z,91.90
2018-03-06T15:31:49.292Z,92.00
2018-03-06T15:34:15.703Z,92.00
2018-03-06T15:36:42.078Z,92.00
2018-03-06T15:39:09.201Z,91.50
2018-03-06T15:41:35.568Z,91.50
2018-03-06T15:44:02.779Z,92.20
2018-03-06T15:46:29.253Z,92.20
2018-03-06T15:48:56.379Z,91.70
2018-03-06T15:51:22.763Z,91.70
2018-03-06T15:53:49.173Z,91.50
2018-03-06T15:56:15.552Z,91.10
2018-03-06T15:58:41.979Z,91.60
2018-03-06T16:01:08.373Z,91.80
2018-03-06T16:03:35.495Z,92.80
2018-03-06T16:06:02.656Z,92.70
2018-03-06T16:08:29.754Z,92.30
2018-03-06T16:10:56.142Z,92.30
2018-03-06T16:13:23.260Z,92.30
2018-03-06T16:15:49.647Z,92.30
2018-03-06T16:18:16.022Z,91.60
2018-03-06T16:20:42.404Z,91.70
2018-03-06T16:23:08.832Z,92.30
2018-03-06T16:25:35.254Z,92.00
2018-03-06T16:28:02.390Z,91.40
2018-03-06T16:30:29.529Z,91.40
2018-03-06T16:32:55.960Z,91.40
2018-03-06T16:35:23.124Z,90.70
2018-03-06T16:37:50.272Z,90.50
2018-03-06T16:40:17.472Z,90.20
2018-03-06T16:42:43.895Z,90.20
2018-03-06T16:45:10.259Z,90.50
2018-03-06T16:47:36.760Z,90.20
2018-03-06T16:50:03.989Z,89.80
2018-03-06T16:52:31.103Z,90.10
2018-03-06T16:54:57.757Z,90.10
2018-03-06T16:57:24.277Z,89.80
2018-03-06T16:59:50.684Z,90.00
2018-03-06T17:02:17.105Z,90.20
2018-03-06T17:04:43.540Z,90.30
2018-03-06T17:07:09.913Z,90.20
2018-03-06T17:09:37.080Z,90.60
2018-03-06T17:12:04.204Z,90.70
2018-03-06T17:14:30.611Z,90.70
2018-03-06T17:16:57.051Z,90.70
2018-03-06T17:19:23.467Z,91.20
2018-03-06T17:21:49.844Z,91.40
2018-03-06T17:24:16.215Z,91.30
2018-03-06T17:26:42.628Z,91.00
2018-03-06T17:29:09.075Z,91.30
2018-03-06T17:31:35.465Z,90.90
2018-03-06T17:34:01.868Z,90.70
2018-03-06T17:36:28.334Z,90.90
2018-03-06T17:38:55.485Z,90.80
2018-03-06T17:41:21.883Z,90.70
2018-03-06T17:43:48.363Z,91.10
2018-03-06T17:46:15.757Z,91.10
2018-03-06T17:48:43.299Z,91.20
2018-03-06T17:51:09.684Z,90.90
2018-03-06T17:53:36.080Z,90.70
2018-03-06T17:56:02.464Z,90.70
2018-03-06T17:58:31.019Z,90.80
2018-03-06T18:00:57.440Z,90.80
2018-03-06T18:03:23.903Z,90.70
2018-03-06T18:05:50.303Z,91.50
2018-03-06T18:08:16.710Z,92.00
2018-03-06T18:10:46.151Z,91.70
2018-03-06T18:13:12.576Z,91.60
2018-03-06T18:15:39.037Z,91.50
2018-03-06T18:18:06.320Z,92.00
2018-03-06T18:20:33.480Z,92.20
2018-03-06T18:23:00.778Z,92.20
2018-03-06T18:25:27.171Z,91.80
2018-03-06T18:27:53.571Z,92.50
2018-03-06T18:30:20.737Z,93.00
2018-03-06T18:32:47.867Z,93.20
2018-03-06T18:35:15.051Z,92.60
2018-03-06T18:37:41.450Z,92.70
2018-03-06T18:40:08.604Z,92.60
2018-03-06T18:42:35.782Z,92.70
2018-03-06T18:45:02.183Z,92.70
2018-03-06T18:47:29.319Z,92.40
2018-03-06T18:50:02.865Z,92.10
2018-03-06T18:52:29.264Z,92.10
2018-03-06T18:54:56.438Z,91.80
2018-03-06T18:57:22.864Z,91.60
2018-03-06T19:03:06.569Z,90.80
2018-03-06T19:05:57.942Z,90.80
2018-03-06T19:08:24.440Z,90.70
2018-03-06T19:10:50.838Z,90.90
2018-03-06T19:13:17.247Z,90.70
2018-03-06T19:15:43.654Z,90.50
2018-03-06T19:18:10.781Z,90.60
2018-03-06T19:20:37.166Z,90.60
2018-03-06T19:23:03.567Z,90.60
2018-03-06T19:25:30.683Z,90.60
2018-03-06T19:27:57.104Z,90.50
2018-03-06T19:30:23.512Z,90.50
2018-03-06T19:32:49.914Z,90.50
2018-03-06T19:35:17.055Z,90.50
2018-03-06T19:37:44.274Z,90.60
2018-03-06T19:40:10.683Z,90.50
2018-03-06T19:42:37.121Z,90.60
2018-03-06T19:45:03.554Z,90.20
2018-03-06T19:47:30.707Z,90.10
2018-03-06T19:49:57.141Z,90.10
2018-03-06T19:52:23.770Z,90.10
2018-03-06T19:54:50.190Z,90.10
2018-03-06T19:57:16.651Z,89.70
2018-03-06T19:59:43.084Z,90.10
2018-03-06T20:02:09.561Z,90.10
2018-03-06T20:04:36.726Z,90.30
2018-03-06T20:07:03.150Z,90.20
2018-03-06T20:09:30.327Z,90.20
2018-03-06T20:11:56.724Z,90.20
2018-03-06T20:14:30.091Z,90.20
2018-03-06T20:16:56.552Z,90.10
2018-03-06T20:19:29.090Z,90.00
2018-03-06T20:21:55.532Z,90.10
2018-03-06T20:24:27.958Z,90.00
2018-03-06T20:26:54.336Z,90.00
2018-03-06T20:29:20.739Z,89.80
2018-03-06T20:32:03.895Z,90.00
2018-03-06T20:34:30.391Z,90.10
2018-03-06T20:36:56.806Z,90.00
2018-03-06T20:39:29.411Z,90.00
2018-03-06T20:41:55.841Z,90.00
2018-03-06T20:44:22.275Z,89.70
2018-03-06T20:46:54.853Z,90.10
2018-03-06T20:49:21.284Z,89.80
2018-03-06T20:51:47.675Z,89.90
2018-03-06T20:54:20.291Z,90.00
2018-03-06T20:56:46.677Z,89.70
2018-03-06T20:59:13.088Z,90.00
2018-03-06T21:01:39.509Z,90.00
2018-03-06T21:04:05.988Z,89.80
2018-03-06T21:06:33.118Z,89.90
2018-03-06T21:08:59.535Z,89.90
2018-03-06T21:11:25.900Z,89.70
2018-03-06T21:13:53.082Z,90.00
2018-03-06T21:16:19.484Z,90.00
2018-03-06T21:18:45.891Z,90.00
2018-03-06T21:21:12.340Z,90.20
2018-03-06T21:23:39.474Z,90.30
2018-03-06T21:26:05.924Z,90.30
2018-03-06T21:28:32.322Z,90.20
2018-03-06T21:30:58.724Z,90.10
2018-03-06T21:33:25.155Z,90.20
2018-03-06T21:35:51.557Z,90.70
2018-03-06T21:38:18.007Z,90.80
2018-03-06T21:40:45.172Z,90.40
2018-03-06T21:43:11.591Z,90.40
2018-03-06T21:45:37.998Z,90.40
2018-03-06T21:48:04.370Z,90.40
2018-03-06T21:50:30.854Z,90.40
2018-03-06T21:55:23.544Z,89.40
2018-03-06T21:57:50.687Z,89.00
2018-03-06T22:00:17.808Z,89.10
2018-03-06T22:02:44.221Z,89.10
2018-03-06T22:05:10.696Z,90.00
2018-03-06T22:07:37.815Z,89.50
2018-03-06T22:10:04.222Z,89.50
2018-03-06T22:12:30.617Z,88.80
2018-03-06T22:14:57.754Z,89.10
2018-03-06T22:17:24.151Z,89.00
2018-03-06T22:19:50.552Z,89.50
2018-03-06T22:22:16.923Z,89.60
2018-03-06T22:24:43.323Z,88.90
2018-03-06T22:27:09.739Z,88.30
2018-03-06T22:29:36.907Z,89.00
2018-03-06T22:32:03.313Z,89.00
2018-03-06T22:34:30.520Z,90.40
2018-03-06T22:36:56.908Z,90.40
2018-03-06T22:39:24.063Z,91.00
2018-03-06T22:41:50.468Z,91.00
2018-03-06T22:44:17.594Z,91.60
2018-03-06T22:46:43.970Z,91.60
2018-03-06T22:49:10.363Z,91.10
2018-03-06T22:51:36.809Z,90.70
2018-03-06T22:54:03.208Z,91.00
2018-03-06T22:56:29.607Z,91.20
2018-03-06T22:58:56.015Z,91.20
2018-03-06T23:01:23.151Z,91.60
2018-03-06T23:03:49.517Z,91.40
2018-03-06T23:06:15.912Z,91.30
2018-03-06T23:08:42.300Z,91.20
2018-03-06T23:11:08.717Z,90.70
2018-03-06T23:13:35.148Z,90.40
2018-03-06T23:16:01.603Z,90.20
2018-03-06T23:18:27.977Z,89.20
2018-03-06T23:20:54.371Z,88.10
2018-03-06T23:23:20.775Z,88.80
2018-03-06T23:25:47.133Z,89.30
2018-03-06T23:28:13.503Z,89.30
2018-03-06T23:30:40.056Z,89.50
2018-03-06T23:33:06.472Z,89.10
2018-03-06T23:35:32.885Z,89.50
2018-03-06T23:37:59.259Z,89.70
2018-03-06T23:40:25.731Z,90.60
2018-03-06T23:42:52.119Z,90.00
2018-03-06T23:45:19.261Z,89.60
2018-03-06T23:47:46.367Z,89.60
2018-03-06T23:50:12.763Z,89.60
2018-03-06T23:52:39.163Z,89.40
2018-03-06T23:55:06.312Z,90.20
2018-03-06T23:57:32.692Z,90.00
2018-03-06T23:59:59.091Z,89.20
